Hon Henry Jackman — C6VQ9 — position and weather

sailwx.info

Track history (hours):
 
Tides and Currents Weather Stations Pressure Air Temp Water Temp Dewpoint Dewpoint Depression Visibility Wind Speed Wind Dir Waves Ship Positions

Hon Henry Jackman

Last reported at 2017-Nov-16 00:34 UTC. Time now 2017-Nov-17 21:20 UTC.
Position N 38°38' W 123°56'.

Length 245 m; draft 8.1 m.

Type: Cargo ship. MMSI: 309822000.

Date/timePositionNaut miles runAvg speedWind from/ knotsBaromVisibWave heightAir tempDewpointWater temp
2017-Nov-16 00:34N 38°38' W 123°56'113.7
2017-Nov-16 00:30N 38°37' W 123°55'713.4
2017-Nov-16 00:00N 38°33' W 123°49'713.2
2017-Nov-15 23:30N 38°28' W 123°43'713.4
2017-Nov-15 23:00N 38°23' W 123°37'713.3
2017-Nov-15 22:30N 38°18' W 123°31'713.3
2017-Nov-15 22:00N 38°13' W 123°26'612.8
2017-Nov-15 21:30N 38°09' W 123°20'612.5
2017-Nov-15 21:00N 38°04' W 123°15'713.1
2017-Nov-15 20:30N 37°59' W 123°09'713.8
2017-Nov-15 20:00N 37°56' W 123°02'713.5
2017-Nov-15 19:30N 37°52' W 122°54'713.5
2017-Nov-15 19:00N 37°49' W 122°47'612.5
2017-Nov-15 18:30N 37°46' W 122°40'612.2
2017-Nov-15 18:00N 37°48' W 122°33'611.8
2017-Nov-15 17:30N 37°50' W 122°26'5 9.0
2017-Nov-15 17:00N 37°47' W 122°23'4 8.8
2017-Nov-15 16:30N 37°42' W 122°21'611.8
2017-Nov-15 16:00N 37°37' W 122°17'511.0
2017-Nov-15 15:30N 37°33' W 122°12'2 4.7
2017-Nov-15 15:00N 37°31' W 122°12'0 0.6
2017-Nov-15 14:30N 37°31' W 122°12'0 0.0
2017-Nov-15 13:54N 37°31' W 122°12'0 0.0
2017-Nov-15 13:27N 37°31' W 122°12'0 0.0
2017-Nov-15 13:00N 37°31' W 122°12'0 0.0
2017-Nov-15 12:27N 37°31' W 122°12'0 0.0
2017-Nov-15 11:57N 37°31' W 122°12'0 0.0
2017-Nov-15 11:27N 37°31' W 122°12'0 0.0
2017-Nov-15 10:54N 37°31' W 122°12'0 0.0
2017-Nov-15 10:27N 37°31' W 122°12'0 0.0
2017-Nov-15 10:00N 37°31' W 122°12'0 0.0
2017-Nov-15 09:30N 37°31' W 122°12'0 0.0
2017-Nov-15 09:00N 37°31' W 122°12'0 0.0
2017-Nov-15 08:30N 37°31' W 122°12'0 0.0
2017-Nov-15 08:00N 37°31' W 122°12'0 0.0
2017-Nov-15 07:30N 37°31' W 122°12'0 0.0
2017-Nov-15 07:00N 37°31' W 122°12'0 0.0
2017-Nov-15 06:30N 37°31' W 122°12'0 0.0
2017-Nov-15 05:54N 37°31' W 122°12'0 0.0
2017-Nov-15 05:21N 37°31' W 122°12'0 0.0
2017-Nov-15 05:00N 37°31' W 122°12'0 0.0
2017-Nov-15 04:21N 37°31' W 122°12'0 0.0
2017-Nov-15 03:57N 37°31' W 122°12'0 0.0
2017-Nov-15 03:24N 37°31' W 122°12'0 0.0
2017-Nov-15 02:59N 37°31' W 122°12'0 0.0
2017-Nov-15 02:26N 37°31' W 122°12'0 0.0
2017-Nov-15 01:59N 37°31' W 122°12'0 0.0
2017-Nov-15 01:29N 37°31' W 122°12'0 0.0
2017-Nov-15 00:50N 37°31' W 122°12'0 0.0
2017-Nov-15 00:29N 37°31' W 122°12'0 0.0
2017-Nov-14 23:56N 37°31' W 122°12'0 0.0
2017-Nov-14 23:29N 37°31' W 122°12'0 0.0
2017-Nov-14 22:53N 37°31' W 122°12'0 0.0
2017-Nov-14 22:29N 37°31' W 122°12'0 0.0
2017-Nov-14 21:59N 37°31' W 122°12'0 0.0
2017-Nov-14 21:26N 37°31' W 122°12'0 0.0
2017-Nov-14 20:59N 37°31' W 122°12'0 0.0
2017-Nov-14 20:29N 37°31' W 122°12'0 0.0
2017-Nov-14 19:50N 37°31' W 122°12'0 0.0
2017-Nov-14 19:29N 37°31' W 122°12'0 0.0
2017-Nov-14 18:56N 37°31' W 122°12'0 0.0
2017-Nov-14 18:26N 37°31' W 122°12'0 0.0
2017-Nov-14 17:59N 37°31' W 122°12'0 0.0
2017-Nov-14 17:29N 37°31' W 122°12'0 0.0
2017-Nov-14 16:56N 37°31' W 122°12'0 0.0
2017-Nov-14 16:29N 37°31' W 122°12'0 0.0
2017-Nov-14 15:59N 37°31' W 122°12'0 0.0
2017-Nov-14 15:29N 37°31' W 122°12'1 2.3
2017-Nov-14 15:00N 37°32' W 122°12'3 6.2
2017-Nov-14 14:31N 37°34' W 122°14'612.2
2017-Nov-14 14:01N 37°39' W 122°19'713.2
2017-Nov-14 13:30N 37°45' W 122°22'713.9
2017-Nov-14 13:00N 37°52' W 122°24'3 6.6
2017-Nov-14 12:30N 37°55' W 122°25'3 5.2
2017-Nov-14 12:01N 37°54' W 122°22'1 1.5
2017-Nov-14 11:30N 37°55' W 122°22'0 0.0
2017-Nov-14 11:00N 37°55' W 122°22'0 0.0
2017-Nov-14 10:30N 37°55' W 122°22'0 0.0
2017-Nov-14 09:57N 37°55' W 122°22'0 0.0
2017-Nov-14 09:30N 37°55' W 122°22'0 0.0
2017-Nov-14 09:00N 37°55' W 122°22'0 0.0
2017-Nov-14 08:30N 37°55' W 122°22'0 0.0
2017-Nov-14 08:00N 37°55' W 122°22'0 0.0
2017-Nov-14 07:15N 37°55' W 122°22'0 0.0
2017-Nov-14 07:00N 37°55' W 122°22'0 0.0
2017-Nov-14 06:30N 37°55' W 122°22'0 0.0
2017-Nov-14 06:00N 37°55' W 122°22'0 0.0
2017-Nov-14 05:30N 37°55' W 122°22'0 0.0
2017-Nov-14 05:00N 37°55' W 122°22'0 0.0
2017-Nov-14 04:24N 37°55' W 122°22'0 0.0
2017-Nov-14 04:00N 37°55' W 122°22'0 0.0
2017-Nov-14 01:51N 37°55' W 122°22'0 0.0
2017-Nov-14 01:24N 37°55' W 122°22'0 0.0
2017-Nov-14 01:00N 37°55' W 122°22'1 1.6
2017-Nov-14 00:30N 37°54' W 122°22'2 3.3
2017-Nov-14 00:00N 37°54' W 122°24'1 2.4
2017-Nov-13 23:30N 37°54' W 122°25'5 9.9
2017-Nov-13 23:00N 37°49' W 122°24'3 6.7
2017-Nov-13 22:31N 37°46' W 122°21'0 0.1
2017-Nov-13 21:56N 37°46' W 122°21'0 0.0
2017-Nov-13 01:59N 37°46' W 122°21'0 0.1
2017-Nov-13 01:29N 37°46' W 122°21'0 0.2
2017-Nov-13 00:59N 37°46' W 122°21'1 1.5
2017-Nov-13 00:30N 37°47' W 122°22'4 8.1
2017-Nov-13 00:00N 37°49' W 122°26'611.5
2017-Nov-12 23:30N 37°47' W 122°33'510.3
2017-Nov-12 23:00N 37°46' W 122°39'5 9.7
2017-Nov-12 22:30N 37°47' W 122°45'3 6.4
2017-Nov-12 22:00N 37°47' W 122°49'510.2
2017-Nov-12 21:30N 37°50' W 122°55'713.5
2017-Nov-12 21:00N 37°53' W 123°02'713.3
2017-Nov-12 20:30N 37°57' W 123°09'713.5
2017-Nov-12 20:00N 38°01' W 123°15'713.9
2017-Nov-12 19:31N 38°07' W 123°21'713.9
2017-Nov-12 19:00N 38°12' W 123°27'713.4
2017-Nov-12 18:30N 38°17' W 123°33'613.0
2017-Nov-12 18:00N 38°22' W 123°38'713.0
2017-Nov-12 17:28N 38°27' W 123°44'  
2017-Nov-10 06:31N 50°49' W 128°27'013.7
2017-Nov-10 06:29N 50°50' W 128°26'713.7
2017-Nov-10 06:01N 50°53' W 128°18'1213.6
2017-Nov-10 05:08N 51°00' W 128°02'214.1
2017-Nov-10 04:59N 51°00' W 127°58'713.3
2017-Nov-10 04:28N 50°59' W 127°48'511.0
2017-Nov-10 04:01N 50°56' W 127°41'713.0
2017-Nov-10 03:31N 50°52' W 127°33'612.8
2017-Nov-10 03:01N 50°48' W 127°25'612.6
2017-Nov-10 02:30N 50°43' W 127°18'9 0.3
2017-Nov-09 00:30N 50°37' W 127°08'2 4.2
2017-Nov-08 23:56N 50°38' W 127°12'611.4
2017-Nov-08 23:24N 50°43' W 127°18'511.8
2017-Nov-08 23:00N 50°46' W 127°23'611.8
2017-Nov-08 22:30N 50°50' W 127°30'612.3
2017-Nov-08 22:00N 50°54' W 127°37'612.1
2017-Nov-08 21:30N 50°58' W 127°45'5 9.5
2017-Nov-08 21:00N 50°60' W 127°52'  
2017-Nov-06 02:30N 37°46' W 122°42'612.0
2017-Nov-06 02:00N 37°47' W 122°35'815.1
2017-Nov-06 01:30N 37°50' W 122°26'511.0
2017-Nov-06 01:01N 37°46' W 122°21'  
Track history (hours):
 
Tides and Currents Weather Stations Pressure Air Temp Water Temp Dewpoint Dewpoint Depression Visibility Wind Speed Wind Dir Waves Ship Positions

Hon Henry Jackman

Last reported at 2017-Nov-16 00:34 UTC. Time now 2017-Nov-17 21:20 UTC.
Position N 38°38' W 123°56'.

Length 245 m; draft 8.1 m.

Type: Cargo ship. MMSI: 309822000.

Date/timePositionNaut miles runAvg speedWind from/ knotsBaromVisibWave heightAir tempDewpointWater temp
2017-Nov-16 00:34N 38°38' W 123°56'113.7
2017-Nov-16 00:30N 38°37' W 123°55'713.4
2017-Nov-16 00:00N 38°33' W 123°49'713.2
2017-Nov-15 23:30N 38°28' W 123°43'713.4
2017-Nov-15 23:00N 38°23' W 123°37'713.3
2017-Nov-15 22:30N 38°18' W 123°31'713.3
2017-Nov-15 22:00N 38°13' W 123°26'612.8
2017-Nov-15 21:30N 38°09' W 123°20'612.5
2017-Nov-15 21:00N 38°04' W 123°15'713.1
2017-Nov-15 20:30N 37°59' W 123°09'713.8
2017-Nov-15 20:00N 37°56' W 123°02'713.5
2017-Nov-15 19:30N 37°52' W 122°54'713.5
2017-Nov-15 19:00N 37°49' W 122°47'612.5
2017-Nov-15 18:30N 37°46' W 122°40'612.2
2017-Nov-15 18:00N 37°48' W 122°33'611.8
2017-Nov-15 17:30N 37°50' W 122°26'5 9.0
2017-Nov-15 17:00N 37°47' W 122°23'4 8.8
2017-Nov-15 16:30N 37°42' W 122°21'611.8
2017-Nov-15 16:00N 37°37' W 122°17'511.0
2017-Nov-15 15:30N 37°33' W 122°12'2 4.7
2017-Nov-15 15:00N 37°31' W 122°12'0 0.6
2017-Nov-15 14:30N 37°31' W 122°12'0 0.0
2017-Nov-15 13:54N 37°31' W 122°12'0 0.0
2017-Nov-15 13:27N 37°31' W 122°12'0 0.0
2017-Nov-15 13:00N 37°31' W 122°12'0 0.0
2017-Nov-15 12:27N 37°31' W 122°12'0 0.0
2017-Nov-15 11:57N 37°31' W 122°12'0 0.0
2017-Nov-15 11:27N 37°31' W 122°12'0 0.0
2017-Nov-15 10:54N 37°31' W 122°12'0 0.0
2017-Nov-15 10:27N 37°31' W 122°12'0 0.0
2017-Nov-15 10:00N 37°31' W 122°12'0 0.0
2017-Nov-15 09:30N 37°31' W 122°12'0 0.0
2017-Nov-15 09:00N 37°31' W 122°12'0 0.0
2017-Nov-15 08:30N 37°31' W 122°12'0 0.0
2017-Nov-15 08:00N 37°31' W 122°12'0 0.0
2017-Nov-15 07:30N 37°31' W 122°12'0 0.0
2017-Nov-15 07:00N 37°31' W 122°12'0 0.0
2017-Nov-15 06:30N 37°31' W 122°12'0 0.0
2017-Nov-15 05:54N 37°31' W 122°12'0 0.0
2017-Nov-15 05:21N 37°31' W 122°12'0 0.0
2017-Nov-15 05:00N 37°31' W 122°12'0 0.0
2017-Nov-15 04:21N 37°31' W 122°12'0 0.0
2017-Nov-15 03:57N 37°31' W 122°12'0 0.0
2017-Nov-15 03:24N 37°31' W 122°12'0 0.0
2017-Nov-15 02:59N 37°31' W 122°12'0 0.0
2017-Nov-15 02:26N 37°31' W 122°12'0 0.0
2017-Nov-15 01:59N 37°31' W 122°12'0 0.0
2017-Nov-15 01:29N 37°31' W 122°12'0 0.0
2017-Nov-15 00:50N 37°31' W 122°12'0 0.0
2017-Nov-15 00:29N 37°31' W 122°12'0 0.0
2017-Nov-14 23:56N 37°31' W 122°12'0 0.0
2017-Nov-14 23:29N 37°31' W 122°12'0 0.0
2017-Nov-14 22:53N 37°31' W 122°12'0 0.0
2017-Nov-14 22:29N 37°31' W 122°12'0 0.0
2017-Nov-14 21:59N 37°31' W 122°12'0 0.0
2017-Nov-14 21:26N 37°31' W 122°12'0 0.0
2017-Nov-14 20:59N 37°31' W 122°12'0 0.0
2017-Nov-14 20:29N 37°31' W 122°12'0 0.0
2017-Nov-14 19:50N 37°31' W 122°12'0 0.0
2017-Nov-14 19:29N 37°31' W 122°12'0 0.0
2017-Nov-14 18:56N 37°31' W 122°12'0 0.0
2017-Nov-14 18:26N 37°31' W 122°12'0 0.0
2017-Nov-14 17:59N 37°31' W 122°12'0 0.0
2017-Nov-14 17:29N 37°31' W 122°12'0 0.0
2017-Nov-14 16:56N 37°31' W 122°12'0 0.0
2017-Nov-14 16:29N 37°31' W 122°12'0 0.0
2017-Nov-14 15:59N 37°31' W 122°12'0 0.0
2017-Nov-14 15:29N 37°31' W 122°12'1 2.3
2017-Nov-14 15:00N 37°32' W 122°12'3 6.2
2017-Nov-14 14:31N 37°34' W 122°14'612.2
2017-Nov-14 14:01N 37°39' W 122°19'713.2
2017-Nov-14 13:30N 37°45' W 122°22'713.9
2017-Nov-14 13:00N 37°52' W 122°24'3 6.6
2017-Nov-14 12:30N 37°55' W 122°25'3 5.2
2017-Nov-14 12:01N 37°54' W 122°22'1 1.5
2017-Nov-14 11:30N 37°55' W 122°22'0 0.0
2017-Nov-14 11:00N 37°55' W 122°22'0 0.0
2017-Nov-14 10:30N 37°55' W 122°22'0 0.0
2017-Nov-14 09:57N 37°55' W 122°22'0 0.0
2017-Nov-14 09:30N 37°55' W 122°22'0 0.0
2017-Nov-14 09:00N 37°55' W 122°22'0 0.0
2017-Nov-14 08:30N 37°55' W 122°22'0 0.0
2017-Nov-14 08:00N 37°55' W 122°22'0 0.0
2017-Nov-14 07:15N 37°55' W 122°22'0 0.0
2017-Nov-14 07:00N 37°55' W 122°22'0 0.0
2017-Nov-14 06:30N 37°55' W 122°22'0 0.0
2017-Nov-14 06:00N 37°55' W 122°22'0 0.0
2017-Nov-14 05:30N 37°55' W 122°22'0 0.0
2017-Nov-14 05:00N 37°55' W 122°22'0 0.0
2017-Nov-14 04:24N 37°55' W 122°22'0 0.0
2017-Nov-14 04:00N 37°55' W 122°22'0 0.0
2017-Nov-14 01:51N 37°55' W 122°22'0 0.0
2017-Nov-14 01:24N 37°55' W 122°22'0 0.0
2017-Nov-14 01:00N 37°55' W 122°22'1 1.6
2017-Nov-14 00:30N 37°54' W 122°22'2 3.3
2017-Nov-14 00:00N 37°54' W 122°24'1 2.4
2017-Nov-13 23:30N 37°54' W 122°25'5 9.9
2017-Nov-13 23:00N 37°49' W 122°24'3 6.7
2017-Nov-13 22:31N 37°46' W 122°21'0 0.1
2017-Nov-13 21:56N 37°46' W 122°21'0 0.0
2017-Nov-13 01:59N 37°46' W 122°21'0 0.1
2017-Nov-13 01:29N 37°46' W 122°21'0 0.2
2017-Nov-13 00:59N 37°46' W 122°21'1 1.5
2017-Nov-13 00:30N 37°47' W 122°22'4 8.1
2017-Nov-13 00:00N 37°49' W 122°26'611.5
2017-Nov-12 23:30N 37°47' W 122°33'510.3
2017-Nov-12 23:00N 37°46' W 122°39'5 9.7
2017-Nov-12 22:30N 37°47' W 122°45'3 6.4
2017-Nov-12 22:00N 37°47' W 122°49'510.2
2017-Nov-12 21:30N 37°50' W 122°55'713.5
2017-Nov-12 21:00N 37°53' W 123°02'713.3
2017-Nov-12 20:30N 37°57' W 123°09'713.5
2017-Nov-12 20:00N 38°01' W 123°15'713.9
2017-Nov-12 19:31N 38°07' W 123°21'713.9
2017-Nov-12 19:00N 38°12' W 123°27'713.4
2017-Nov-12 18:30N 38°17' W 123°33'613.0
2017-Nov-12 18:00N 38°22' W 123°38'713.0
2017-Nov-12 17:28N 38°27' W 123°44'  
2017-Nov-10 06:31N 50°49' W 128°27'013.7
2017-Nov-10 06:29N 50°50' W 128°26'713.7
2017-Nov-10 06:01N 50°53' W 128°18'1213.6
2017-Nov-10 05:08N 51°00' W 128°02'214.1
2017-Nov-10 04:59N 51°00' W 127°58'713.3
2017-Nov-10 04:28N 50°59' W 127°48'511.0
2017-Nov-10 04:01N 50°56' W 127°41'713.0
2017-Nov-10 03:31N 50°52' W 127°33'612.8
2017-Nov-10 03:01N 50°48' W 127°25'612.6
2017-Nov-10 02:30N 50°43' W 127°18'9 0.3
2017-Nov-09 00:30N 50°37' W 127°08'2 4.2
2017-Nov-08 23:56N 50°38' W 127°12'611.4
2017-Nov-08 23:24N 50°43' W 127°18'511.8
2017-Nov-08 23:00N 50°46' W 127°23'611.8
2017-Nov-08 22:30N 50°50' W 127°30'612.3
2017-Nov-08 22:00N 50°54' W 127°37'612.1
2017-Nov-08 21:30N 50°58' W 127°45'5 9.5
2017-Nov-08 21:00N 50°60' W 127°52'  
2017-Nov-06 02:30N 37°46' W 122°42'612.0
2017-Nov-06 02:00N 37°47' W 122°35'815.1
2017-Nov-06 01:30N 37°50' W 122°26'511.0
2017-Nov-06 01:01N 37°46' W 122°21'  

Dump ship's entire track history